EIN6CE LOWW-EIDW
Flight info
| Callsign | EIN6CE |
|---|---|
| Flight time | 2h 24m |
| Altitude | 36000 |
| Route | BUWUT DCT DITIS DCT VARIK DCT KATCE DCT RKN L602 SPY DCT RAVLO Y70 OTBED L60 PENIL UL28 DANDI/N0368F240 L28 LELDO M145 BAGSO BAGSO3R |
| Aircraft | A320/M-SDE3FGHIRWY/LB1 |
Departure
| Time | 2026-04-21 09:58 |
|---|---|
| Airport | Vienna International Airport (LOWW) |
Arrival
| Time | 2026-04-21 12:23 |
|---|---|
| Airport | Dublin Airport (EIDW) |
| Time | Latitude | Longitude | Altitude | Speed | Heading |
|---|---|---|---|---|---|
| 2026-04-21 09:26 | 48.11853 | 16.55997 | 609 ft | 0 kts | 124° |
| 2026-04-21 09:48 | 48.11856 | 16.55990 | 609 ft | 4 kts | 124° |
| 2026-04-21 09:49 | 48.11871 | 16.55957 | 621 ft | 4 kts | 126° |
| 2026-04-21 09:49 | 48.11888 | 16.55926 | 618 ft | 4 kts | 140° |
| 2026-04-21 09:49 | 48.11907 | 16.55911 | 620 ft | 3 kts | 200° |
| 2026-04-21 09:49 | 48.11911 | 16.55912 | 621 ft | 0 kts | 206° |
| 2026-04-21 09:53 | 48.11876 | 16.55887 | 611 ft | 15 kts | 205° |
| 2026-04-21 09:53 | 48.11779 | 16.55817 | 610 ft | 15 kts | 206° |
| 2026-04-21 09:54 | 48.11693 | 16.55800 | 613 ft | 12 kts | 142° |
| 2026-04-21 09:54 | 48.11652 | 16.55916 | 617 ft | 18 kts | 116° |
| 2026-04-21 09:54 | 48.11581 | 16.56132 | 613 ft | 24 kts | 116° |
| 2026-04-21 09:54 | 48.11511 | 16.56350 | 612 ft | 22 kts | 117° |
| 2026-04-21 09:55 | 48.11446 | 16.56545 | 622 ft | 20 kts | 115° |
| 2026-04-21 09:55 | 48.11389 | 16.56723 | 614 ft | 18 kts | 115° |
| 2026-04-21 09:55 | 48.11337 | 16.56883 | 622 ft | 17 kts | 116° |
| 2026-04-21 09:55 | 48.11279 | 16.57060 | 614 ft | 19 kts | 115° |
| 2026-04-21 09:56 | 48.11224 | 16.57228 | 617 ft | 17 kts | 116° |
| 2026-04-21 09:56 | 48.11175 | 16.57378 | 616 ft | 15 kts | 116° |
| 2026-04-21 09:56 | 48.11133 | 16.57511 | 618 ft | 13 kts | 115° |
| 2026-04-21 09:56 | 48.11093 | 16.57628 | 617 ft | 12 kts | 127° |
| 2026-04-21 09:57 | 48.11026 | 16.57635 | 610 ft | 10 kts | 206° |
| 2026-04-21 09:57 | 48.10971 | 16.57594 | 615 ft | 8 kts | 206° |
| 2026-04-21 09:57 | 48.10925 | 16.57558 | 622 ft | 6 kts | 216° |
| 2026-04-21 09:57 | 48.10924 | 16.57505 | 614 ft | 5 kts | 289° |
| 2026-04-21 09:58 | 48.10982 | 16.57328 | 618 ft | 48 kts | 295° |
| 2026-04-21 09:58 | 48.11226 | 16.56580 | 610 ft | 109 kts | 295° |
| 2026-04-21 09:58 | 48.11631 | 16.55338 | 620 ft | 157 kts | 299° |
| 2026-04-21 09:58 | 48.12090 | 16.53892 | 1277 ft | 153 kts | 289° |
| 2026-04-21 09:59 | 48.12056 | 16.52257 | 1915 ft | 162 kts | 267° |
| 2026-04-21 09:59 | 48.11883 | 16.50492 | 2246 ft | 180 kts | 267° |
| 2026-04-21 09:59 | 48.11703 | 16.48542 | 2554 ft | 200 kts | 266° |
| 2026-04-21 09:59 | 48.11681 | 16.46360 | 2788 ft | 221 kts | 281° |
| 2026-04-21 10:00 | 48.11927 | 16.43958 | 3150 ft | 245 kts | 282° |
| 2026-04-21 10:00 | 48.12197 | 16.41398 | 3964 ft | 250 kts | 283° |
| 2026-04-21 10:00 | 48.12469 | 16.38813 | 4879 ft | 255 kts | 282° |
| 2026-04-21 10:00 | 48.12742 | 16.36216 | 5787 ft | 257 kts | 282° |
| 2026-04-21 10:01 | 48.13020 | 16.33537 | 6595 ft | 264 kts | 282° |
| 2026-04-21 10:01 | 48.13303 | 16.30804 | 7351 ft | 268 kts | 282° |
| 2026-04-21 10:01 | 48.13591 | 16.28034 | 8174 ft | 271 kts | 281° |
| 2026-04-21 10:01 | 48.13890 | 16.25228 | 8941 ft | 275 kts | 286° |
| 2026-04-21 10:02 | 48.15638 | 16.20244 | 10504 ft | 272 kts | 318° |
| 2026-04-21 10:02 | 48.17192 | 16.18504 | 10774 ft | 290 kts | 334° |
| 2026-04-21 10:02 | 48.19052 | 16.17135 | 10989 ft | 312 kts | 335° |
| 2026-04-21 10:03 | 48.21038 | 16.15688 | 11475 ft | 321 kts | 335° |
| 2026-04-21 10:03 | 48.23059 | 16.14210 | 12177 ft | 325 kts | 334° |
| 2026-04-21 10:03 | 48.25095 | 16.12709 | 12919 ft | 329 kts | 334° |
| 2026-04-21 10:03 | 48.27152 | 16.11189 | 13670 ft | 330 kts | 334° |
| 2026-04-21 10:04 | 48.29219 | 16.09655 | 14364 ft | 332 kts | 334° |
| 2026-04-21 10:04 | 48.31310 | 16.08099 | 14906 ft | 338 kts | 333° |
| 2026-04-21 10:04 | 48.33429 | 16.06518 | 15468 ft | 342 kts | 333° |
| 2026-04-21 10:04 | 48.35578 | 16.04915 | 16028 ft | 347 kts | 333° |
| 2026-04-21 10:05 | 48.37719 | 16.03317 | 16652 ft | 349 kts | 333° |
| 2026-04-21 10:05 | 48.39906 | 16.01689 | 17270 ft | 352 kts | 333° |
| 2026-04-21 10:05 | 48.42108 | 16.00052 | 17946 ft | 354 kts | 333° |
| 2026-04-21 10:05 | 48.44328 | 15.98397 | 18547 ft | 357 kts | 333° |
| 2026-04-21 10:06 | 48.46567 | 15.96723 | 19048 ft | 360 kts | 333° |
| 2026-04-21 10:06 | 48.48820 | 15.95035 | 19578 ft | 363 kts | 333° |
| 2026-04-21 10:06 | 48.51094 | 15.93328 | 20076 ft | 367 kts | 333° |
| 2026-04-21 10:06 | 48.53382 | 15.91605 | 20632 ft | 368 kts | 333° |
| 2026-04-21 10:07 | 48.55573 | 15.89683 | 21132 ft | 371 kts | 324° |
| 2026-04-21 10:07 | 48.57534 | 15.87154 | 21667 ft | 372 kts | 313° |
| 2026-04-21 10:07 | 48.59162 | 15.84098 | 22184 ft | 375 kts | 304° |
| 2026-04-21 10:07 | 48.60632 | 15.80826 | 22691 ft | 378 kts | 304° |
| 2026-04-21 10:08 | 48.62111 | 15.77534 | 23185 ft | 380 kts | 304° |
| 2026-04-21 10:08 | 48.63601 | 15.74214 | 23670 ft | 383 kts | 304° |
| 2026-04-21 10:08 | 48.65105 | 15.70874 | 24065 ft | 386 kts | 304° |
| 2026-04-21 10:08 | 48.66620 | 15.67512 | 24449 ft | 388 kts | 304° |
| 2026-04-21 10:09 | 48.68141 | 15.64131 | 24857 ft | 390 kts | 304° |
| 2026-04-21 10:09 | 48.69647 | 15.60773 | 25237 ft | 391 kts | 304° |
| 2026-04-21 10:09 | 48.71041 | 15.57221 | 25609 ft | 394 kts | 299° |
| 2026-04-21 10:09 | 48.72372 | 15.53592 | 25976 ft | 396 kts | 299° |
| 2026-04-21 10:10 | 48.73713 | 15.49942 | 26345 ft | 398 kts | 299° |
| 2026-04-21 10:10 | 48.75058 | 15.46269 | 26701 ft | 399 kts | 299° |
| 2026-04-21 10:10 | 48.76406 | 15.42578 | 27038 ft | 401 kts | 299° |
| 2026-04-21 10:10 | 48.77761 | 15.38863 | 27370 ft | 404 kts | 299° |
| 2026-04-21 10:11 | 48.79104 | 15.35175 | 27704 ft | 406 kts | 299° |
| 2026-04-21 10:11 | 48.80492 | 15.31440 | 28042 ft | 408 kts | 302° |
| 2026-04-21 10:11 | 48.82117 | 15.27908 | 28362 ft | 409 kts | 306° |
| 2026-04-21 10:11 | 48.83785 | 15.24394 | 28681 ft | 411 kts | 306° |
| 2026-04-21 10:12 | 48.85460 | 15.20861 | 29002 ft | 413 kts | 306° |
| 2026-04-21 10:12 | 48.87140 | 15.17308 | 29302 ft | 415 kts | 306° |
| 2026-04-21 10:12 | 48.88823 | 15.13740 | 29594 ft | 417 kts | 306° |
| 2026-04-21 10:12 | 48.90523 | 15.10159 | 29883 ft | 419 kts | 307° |
| 2026-04-21 10:13 | 48.92278 | 15.06692 | 30150 ft | 420 kts | 309° |
| 2026-04-21 10:13 | 48.94128 | 15.03236 | 30361 ft | 423 kts | 310° |
| 2026-04-21 10:13 | 48.96021 | 14.99797 | 30573 ft | 425 kts | 310° |
| 2026-04-21 10:13 | 48.97925 | 14.96349 | 30782 ft | 426 kts | 310° |
| 2026-04-21 10:14 | 48.99825 | 14.92877 | 31005 ft | 428 kts | 309° |
| 2026-04-21 10:14 | 49.01718 | 14.89377 | 31269 ft | 428 kts | 309° |
| 2026-04-21 10:14 | 49.03592 | 14.85866 | 31553 ft | 427 kts | 309° |
| 2026-04-21 10:14 | 49.05456 | 14.82341 | 31826 ft | 427 kts | 309° |
| 2026-04-21 10:15 | 49.07316 | 14.78808 | 32096 ft | 427 kts | 309° |
| 2026-04-21 10:15 | 49.09154 | 14.75320 | 32351 ft | 427 kts | 309° |
| 2026-04-21 10:15 | 49.11015 | 14.71788 | 32598 ft | 428 kts | 309° |
| 2026-04-21 10:15 | 49.12877 | 14.68250 | 32863 ft | 427 kts | 309° |
| 2026-04-21 10:16 | 49.14739 | 14.64710 | 33133 ft | 427 kts | 309° |
| 2026-04-21 10:16 | 49.16603 | 14.61167 | 33401 ft | 427 kts | 308° |
| 2026-04-21 10:16 | 49.18464 | 14.57630 | 33665 ft | 427 kts | 308° |
| 2026-04-21 10:16 | 49.20326 | 14.54081 | 33940 ft | 427 kts | 308° |
| 2026-04-21 10:17 | 49.22183 | 14.50531 | 34175 ft | 428 kts | 308° |
| 2026-04-21 10:17 | 49.24038 | 14.46981 | 34411 ft | 427 kts | 308° |
| 2026-04-21 10:17 | 49.25873 | 14.43477 | 34624 ft | 427 kts | 308° |
| 2026-04-21 10:17 | 49.27730 | 14.39929 | 34836 ft | 427 kts | 308° |
| 2026-04-21 10:18 | 49.29587 | 14.36374 | 35044 ft | 427 kts | 308° |
| 2026-04-21 10:18 | 49.31443 | 14.32813 | 35214 ft | 428 kts | 308° |
| 2026-04-21 10:18 | 49.33305 | 14.29233 | 35371 ft | 429 kts | 308° |
| 2026-04-21 10:18 | 49.35165 | 14.25652 | 35548 ft | 430 kts | 308° |
| 2026-04-21 10:19 | 49.37026 | 14.22063 | 35728 ft | 430 kts | 308° |
| 2026-04-21 10:19 | 49.38884 | 14.18477 | 35912 ft | 430 kts | 308° |
| 2026-04-21 10:19 | 49.40740 | 14.14884 | 36090 ft | 430 kts | 308° |
| 2026-04-21 10:20 | 49.44414 | 14.07762 | 36151 ft | 427 kts | 308° |
| 2026-04-21 10:20 | 49.48091 | 14.00616 | 36156 ft | 426 kts | 308° |
| 2026-04-21 10:21 | 49.51761 | 13.93469 | 36162 ft | 426 kts | 308° |
| 2026-04-21 10:21 | 49.55426 | 13.86316 | 36158 ft | 426 kts | 308° |
| 2026-04-21 10:22 | 49.59064 | 13.79199 | 36163 ft | 426 kts | 308° |
| 2026-04-21 10:22 | 49.62721 | 13.72019 | 36168 ft | 426 kts | 308° |
| 2026-04-21 10:23 | 49.66372 | 13.64819 | 36173 ft | 426 kts | 308° |
| 2026-04-21 10:23 | 49.70018 | 13.57607 | 36168 ft | 426 kts | 308° |
| 2026-04-21 10:24 | 49.73644 | 13.50446 | 36174 ft | 426 kts | 308° |
| 2026-04-21 10:24 | 49.77285 | 13.43215 | 36171 ft | 426 kts | 308° |
| 2026-04-21 10:25 | 49.80922 | 13.35973 | 36177 ft | 426 kts | 308° |
| 2026-04-21 10:25 | 49.84554 | 13.28728 | 36179 ft | 426 kts | 308° |
| 2026-04-21 10:26 | 49.88181 | 13.21471 | 36179 ft | 426 kts | 308° |
| 2026-04-21 10:26 | 49.91775 | 13.14249 | 36186 ft | 425 kts | 308° |
| 2026-04-21 10:27 | 49.95384 | 13.06977 | 36173 ft | 425 kts | 308° |
| 2026-04-21 10:27 | 49.98993 | 12.99711 | 36187 ft | 425 kts | 308° |
| 2026-04-21 10:28 | 50.02566 | 12.92477 | 36178 ft | 425 kts | 308° |
| 2026-04-21 10:28 | 50.06165 | 12.85184 | 36172 ft | 425 kts | 308° |
| 2026-04-21 10:29 | 50.09760 | 12.77865 | 36174 ft | 425 kts | 308° |
| 2026-04-21 10:29 | 50.13342 | 12.70541 | 36178 ft | 425 kts | 308° |
| 2026-04-21 10:30 | 50.16922 | 12.63205 | 36182 ft | 425 kts | 308° |
| 2026-04-21 10:30 | 50.20473 | 12.55920 | 36196 ft | 424 kts | 308° |
| 2026-04-21 10:31 | 50.24046 | 12.48580 | 36180 ft | 425 kts | 308° |
| 2026-04-21 10:31 | 50.27615 | 12.41212 | 36175 ft | 426 kts | 308° |
| 2026-04-21 10:32 | 50.31202 | 12.33823 | 36172 ft | 427 kts | 308° |
| 2026-04-21 10:32 | 50.34818 | 12.26442 | 36179 ft | 428 kts | 308° |
| 2026-04-21 10:33 | 50.38422 | 12.19102 | 36190 ft | 428 kts | 308° |
| 2026-04-21 10:33 | 50.42038 | 12.11688 | 36182 ft | 428 kts | 308° |
| 2026-04-21 10:34 | 50.45646 | 12.04256 | 36185 ft | 428 kts | 308° |
| 2026-04-21 10:34 | 50.49248 | 11.96820 | 36195 ft | 428 kts | 308° |
| 2026-04-21 10:35 | 50.52817 | 11.89426 | 36210 ft | 428 kts | 308° |
| 2026-04-21 10:35 | 50.56412 | 11.81966 | 36204 ft | 428 kts | 308° |
| 2026-04-21 10:36 | 50.60005 | 11.74486 | 36225 ft | 428 kts | 308° |
| 2026-04-21 10:36 | 50.63590 | 11.67001 | 36215 ft | 428 kts | 308° |
| 2026-04-21 10:37 | 50.67171 | 11.59504 | 36233 ft | 428 kts | 308° |
| 2026-04-21 10:37 | 50.70720 | 11.52047 | 36246 ft | 428 kts | 308° |
| 2026-04-21 10:38 | 50.74287 | 11.44542 | 36255 ft | 427 kts | 308° |
| 2026-04-21 10:38 | 50.77844 | 11.37026 | 36262 ft | 427 kts | 308° |
| 2026-04-21 10:39 | 50.81373 | 11.29536 | 36235 ft | 428 kts | 308° |
| 2026-04-21 10:39 | 50.84929 | 11.21985 | 36245 ft | 429 kts | 308° |
| 2026-04-21 10:40 | 50.88496 | 11.14402 | 36258 ft | 430 kts | 308° |
| 2026-04-21 10:40 | 50.92060 | 11.06790 | 36265 ft | 430 kts | 308° |
| 2026-04-21 10:41 | 50.95615 | 10.99159 | 36268 ft | 430 kts | 308° |
| 2026-04-21 10:41 | 50.99151 | 10.91568 | 36270 ft | 430 kts | 308° |
| 2026-04-21 10:42 | 51.02699 | 10.83919 | 36264 ft | 430 kts | 308° |
| 2026-04-21 10:42 | 51.06246 | 10.76250 | 36269 ft | 430 kts | 308° |
| 2026-04-21 10:43 | 51.09788 | 10.68572 | 36274 ft | 431 kts | 308° |
| 2026-04-21 10:43 | 51.13334 | 10.60870 | 36262 ft | 432 kts | 307° |
| 2026-04-21 10:44 | 51.16858 | 10.53195 | 36262 ft | 432 kts | 307° |
| 2026-04-21 10:44 | 51.20398 | 10.45441 | 36257 ft | 433 kts | 307° |
| 2026-04-21 10:45 | 51.23923 | 10.37665 | 36265 ft | 432 kts | 307° |
| 2026-04-21 10:45 | 51.26704 | 10.29151 | 36269 ft | 434 kts | 295° |
| 2026-04-21 10:46 | 51.29045 | 10.20324 | 36274 ft | 435 kts | 295° |
| 2026-04-21 10:46 | 51.31393 | 10.11426 | 36279 ft | 435 kts | 294° |
| 2026-04-21 10:47 | 51.33736 | 10.02514 | 36273 ft | 435 kts | 294° |
| 2026-04-21 10:47 | 51.36071 | 9.93592 | 36282 ft | 435 kts | 294° |
| 2026-04-21 10:48 | 51.38384 | 9.84716 | 36284 ft | 435 kts | 294° |
| 2026-04-21 10:48 | 51.40710 | 9.75780 | 36288 ft | 435 kts | 294° |
| 2026-04-21 10:49 | 51.43033 | 9.66816 | 36280 ft | 436 kts | 294° |
| 2026-04-21 10:49 | 51.45345 | 9.57816 | 36251 ft | 437 kts | 294° |
| 2026-04-21 10:50 | 51.47264 | 9.50313 | 36256 ft | 438 kts | 294° |
| 2026-04-21 10:50 | 51.49954 | 9.39812 | 36266 ft | 438 kts | 294° |
| 2026-04-21 10:51 | 51.52266 | 9.30769 | 36281 ft | 438 kts | 294° |
| 2026-04-21 10:51 | 51.54571 | 9.21705 | 36288 ft | 438 kts | 294° |
| 2026-04-21 10:52 | 51.56865 | 9.12627 | 36296 ft | 438 kts | 294° |
| 2026-04-21 10:52 | 51.59133 | 9.03598 | 36302 ft | 438 kts | 294° |
| 2026-04-21 10:53 | 51.61412 | 8.94501 | 36304 ft | 438 kts | 294° |
| 2026-04-21 10:53 | 51.63683 | 8.85398 | 36308 ft | 438 kts | 294° |
| 2026-04-21 10:54 | 51.65949 | 8.76289 | 36312 ft | 438 kts | 294° |
| 2026-04-21 10:54 | 51.68210 | 8.67170 | 36303 ft | 438 kts | 293° |
| 2026-04-21 10:55 | 51.70462 | 8.58046 | 36306 ft | 438 kts | 293° |
| 2026-04-21 10:55 | 51.72685 | 8.48975 | 36307 ft | 438 kts | 293° |
| 2026-04-21 10:56 | 51.74915 | 8.39846 | 36301 ft | 438 kts | 293° |
| 2026-04-21 10:56 | 51.77146 | 8.30682 | 36296 ft | 439 kts | 293° |
| 2026-04-21 10:57 | 51.79367 | 8.21494 | 36284 ft | 439 kts | 293° |
| 2026-04-21 10:57 | 51.81570 | 8.12361 | 36295 ft | 439 kts | 293° |
| 2026-04-21 10:58 | 51.83786 | 8.03154 | 36303 ft | 440 kts | 293° |
| 2026-04-21 10:58 | 51.86001 | 7.93936 | 36309 ft | 440 kts | 293° |
| 2026-04-21 10:59 | 51.88206 | 7.84701 | 36311 ft | 440 kts | 293° |
| 2026-04-21 10:59 | 51.90374 | 7.75531 | 36309 ft | 439 kts | 292° |
| 2026-04-21 11:00 | 51.92554 | 7.66281 | 36316 ft | 439 kts | 292° |
| 2026-04-21 11:00 | 51.94730 | 7.57041 | 36328 ft | 439 kts | 292° |
| 2026-04-21 11:01 | 51.96897 | 7.47801 | 36331 ft | 439 kts | 292° |
| 2026-04-21 11:01 | 51.99066 | 7.38554 | 36334 ft | 439 kts | 292° |
| 2026-04-21 11:02 | 52.02275 | 7.24731 | 36328 ft | 438 kts | 292° |
| 2026-04-21 11:02 | 52.04413 | 7.15469 | 36332 ft | 438 kts | 292° |
| 2026-04-21 11:03 | 52.06537 | 7.06197 | 36335 ft | 438 kts | 292° |
| 2026-04-21 11:03 | 52.08640 | 6.96979 | 36335 ft | 438 kts | 292° |
| 2026-04-21 11:04 | 52.10764 | 6.87689 | 36317 ft | 439 kts | 292° |
| 2026-04-21 11:04 | 52.12883 | 6.78382 | 36325 ft | 439 kts | 292° |
| 2026-04-21 11:05 | 52.14978 | 6.69057 | 36332 ft | 439 kts | 292° |
| 2026-04-21 11:05 | 52.17041 | 6.59707 | 36335 ft | 439 kts | 292° |
| 2026-04-21 11:06 | 52.19090 | 6.50417 | 36335 ft | 439 kts | 291° |
| 2026-04-21 11:06 | 52.21152 | 6.41056 | 36331 ft | 439 kts | 292° |
| 2026-04-21 11:07 | 52.23201 | 6.31687 | 36336 ft | 438 kts | 291° |
| 2026-04-21 11:07 | 52.25241 | 6.22316 | 36336 ft | 438 kts | 291° |
| 2026-04-21 11:08 | 52.27263 | 6.13002 | 36348 ft | 438 kts | 291° |
| 2026-04-21 11:08 | 52.29291 | 6.03625 | 36348 ft | 438 kts | 291° |
| 2026-04-21 11:09 | 52.31308 | 5.94240 | 36330 ft | 438 kts | 291° |
| 2026-04-21 11:09 | 52.33314 | 5.84841 | 36345 ft | 438 kts | 291° |
| 2026-04-21 11:10 | 52.35315 | 5.75447 | 36348 ft | 437 kts | 291° |
| 2026-04-21 11:10 | 52.37293 | 5.66103 | 36357 ft | 437 kts | 291° |
| 2026-04-21 11:11 | 52.39277 | 5.56700 | 36368 ft | 437 kts | 291° |
| 2026-04-21 11:11 | 52.41261 | 5.47282 | 36362 ft | 437 kts | 291° |
| 2026-04-21 11:12 | 52.43234 | 5.37853 | 36355 ft | 437 kts | 291° |
| 2026-04-21 11:12 | 52.45182 | 5.28479 | 36361 ft | 437 kts | 291° |
| 2026-04-21 11:13 | 52.47138 | 5.19040 | 36365 ft | 437 kts | 291° |
| 2026-04-21 11:13 | 52.49082 | 5.09591 | 36370 ft | 437 kts | 291° |
| 2026-04-21 11:14 | 52.51011 | 5.00200 | 36370 ft | 437 kts | 290° |
| 2026-04-21 11:14 | 52.52946 | 4.90739 | 36368 ft | 437 kts | 291° |
| 2026-04-21 11:15 | 52.54893 | 4.81286 | 36371 ft | 436 kts | 292° |
| 2026-04-21 11:15 | 52.57022 | 4.71958 | 36373 ft | 436 kts | 293° |
| 2026-04-21 11:16 | 52.58848 | 4.64243 | 36383 ft | 436 kts | 293° |
| 2026-04-21 11:16 | 52.61356 | 4.53420 | 36381 ft | 436 kts | 292° |
| 2026-04-21 11:17 | 52.63459 | 4.44067 | 36381 ft | 436 kts | 292° |
| 2026-04-21 11:17 | 52.65553 | 4.34705 | 36385 ft | 436 kts | 292° |
| 2026-04-21 11:18 | 52.67296 | 4.26923 | 36386 ft | 435 kts | 292° |
| 2026-04-21 11:18 | 52.69722 | 4.16036 | 36390 ft | 436 kts | 292° |
| 2026-04-21 11:19 | 52.71812 | 4.06644 | 36383 ft | 436 kts | 291° |
| 2026-04-21 11:19 | 52.73540 | 3.98826 | 36378 ft | 437 kts | 292° |
| 2026-04-21 11:20 | 52.75615 | 3.89418 | 36392 ft | 436 kts | 292° |
| 2026-04-21 11:20 | 52.77673 | 3.80006 | 36394 ft | 435 kts | 293° |
| 2026-04-21 11:21 | 52.79721 | 3.70605 | 36394 ft | 435 kts | 291° |
| 2026-04-21 11:21 | 52.81772 | 3.61180 | 36396 ft | 436 kts | 292° |
| 2026-04-21 11:22 | 52.83797 | 3.51808 | 36378 ft | 435 kts | 291° |
| 2026-04-21 11:22 | 52.85825 | 3.42389 | 36402 ft | 434 kts | 291° |
| 2026-04-21 11:23 | 52.87844 | 3.32980 | 36399 ft | 433 kts | 291° |
| 2026-04-21 11:23 | 52.89843 | 3.23575 | 36406 ft | 433 kts | 291° |
| 2026-04-21 11:24 | 52.91776 | 3.14189 | 36400 ft | 434 kts | 288° |
| 2026-04-21 11:24 | 52.93080 | 3.04412 | 36415 ft | 434 kts | 285° |
| 2026-04-21 11:25 | 52.94370 | 2.94654 | 36424 ft | 433 kts | 284° |
| 2026-04-21 11:25 | 52.95654 | 2.84906 | 36425 ft | 432 kts | 284° |
| 2026-04-21 11:26 | 52.96926 | 2.75169 | 36430 ft | 432 kts | 283° |
| 2026-04-21 11:26 | 52.98173 | 2.65505 | 36420 ft | 431 kts | 283° |
| 2026-04-21 11:27 | 52.99426 | 2.55747 | 36404 ft | 433 kts | 283° |
| 2026-04-21 11:27 | 53.00671 | 2.45953 | 36397 ft | 434 kts | 283° |
| 2026-04-21 11:28 | 53.01904 | 2.36160 | 36412 ft | 433 kts | 284° |
| 2026-04-21 11:28 | 53.03125 | 2.26433 | 36418 ft | 433 kts | 283° |
| 2026-04-21 11:29 | 53.04343 | 2.16632 | 36414 ft | 433 kts | 284° |
| 2026-04-21 11:29 | 53.05555 | 2.06829 | 36422 ft | 433 kts | 283° |
| 2026-04-21 11:30 | 53.06764 | 1.97048 | 36435 ft | 431 kts | 283° |
| 2026-04-21 11:30 | 53.07946 | 1.87349 | 36442 ft | 430 kts | 284° |
| 2026-04-21 11:31 | 53.09119 | 1.77612 | 36448 ft | 429 kts | 283° |
| 2026-04-21 11:31 | 53.10286 | 1.67900 | 36442 ft | 427 kts | 284° |
| 2026-04-21 11:32 | 53.11451 | 1.58190 | 36430 ft | 428 kts | 282° |
| 2026-04-21 11:32 | 53.12603 | 1.48483 | 36428 ft | 427 kts | 283° |
| 2026-04-21 11:33 | 53.13727 | 1.38857 | 36436 ft | 426 kts | 283° |
| 2026-04-21 11:33 | 53.14853 | 1.29184 | 36437 ft | 425 kts | 282° |
| 2026-04-21 11:34 | 53.15980 | 1.19511 | 36437 ft | 425 kts | 283° |
| 2026-04-21 11:34 | 53.17097 | 1.09853 | 36444 ft | 424 kts | 283° |
| 2026-04-21 11:35 | 53.18195 | 1.00265 | 36420 ft | 424 kts | 282° |
| 2026-04-21 11:35 | 53.19284 | 0.90607 | 36437 ft | 424 kts | 282° |
| 2026-04-21 11:36 | 53.20364 | 0.80960 | 36446 ft | 422 kts | 282° |
| 2026-04-21 11:36 | 53.21441 | 0.71331 | 36444 ft | 422 kts | 282° |
| 2026-04-21 11:37 | 53.22503 | 0.61766 | 36433 ft | 422 kts | 282° |
| 2026-04-21 11:37 | 53.23558 | 0.52138 | 36434 ft | 421 kts | 282° |
| 2026-04-21 11:38 | 53.24597 | 0.42527 | 36435 ft | 420 kts | 281° |
| 2026-04-21 11:38 | 53.25635 | 0.32924 | 36428 ft | 420 kts | 282° |
| 2026-04-21 11:39 | 53.26668 | 0.23316 | 36440 ft | 420 kts | 282° |
| 2026-04-21 11:39 | 53.27685 | 0.13778 | 36436 ft | 420 kts | 282° |
| 2026-04-21 11:40 | 53.28699 | 0.04171 | 36427 ft | 420 kts | 281° |
| 2026-04-21 11:40 | 53.29705 | -0.05445 | 36412 ft | 420 kts | 281° |
| 2026-04-21 11:41 | 53.30700 | -0.15042 | 36423 ft | 419 kts | 281° |
| 2026-04-21 11:41 | 53.31682 | -0.24570 | 36412 ft | 419 kts | 281° |
| 2026-04-21 11:42 | 53.32663 | -0.34176 | 36408 ft | 419 kts | 281° |
| 2026-04-21 11:42 | 53.33631 | -0.43775 | 36419 ft | 418 kts | 281° |
| 2026-04-21 11:43 | 53.34588 | -0.53304 | 36408 ft | 418 kts | 281° |
| 2026-04-21 11:43 | 53.35539 | -0.62917 | 36409 ft | 419 kts | 281° |
| 2026-04-21 11:44 | 53.36492 | -0.72528 | 36428 ft | 418 kts | 281° |
| 2026-04-21 11:44 | 53.37439 | -0.82130 | 36423 ft | 418 kts | 281° |
| 2026-04-21 11:45 | 53.38368 | -0.91691 | 36429 ft | 419 kts | 280° |
| 2026-04-21 11:45 | 53.39291 | -1.01322 | 36436 ft | 420 kts | 281° |
| 2026-04-21 11:46 | 53.40223 | -1.11095 | 36429 ft | 430 kts | 280° |
| 2026-04-21 11:46 | 53.41169 | -1.21092 | 36429 ft | 436 kts | 281° |
| 2026-04-21 11:47 | 53.42108 | -1.31145 | 36426 ft | 436 kts | 281° |
| 2026-04-21 11:47 | 53.43032 | -1.41150 | 36425 ft | 437 kts | 279° |
| 2026-04-21 11:48 | 53.43963 | -1.51254 | 36418 ft | 437 kts | 280° |
| 2026-04-21 11:48 | 53.44879 | -1.61301 | 36434 ft | 435 kts | 279° |
| 2026-04-21 11:49 | 53.45780 | -1.71335 | 36428 ft | 435 kts | 279° |
| 2026-04-21 11:49 | 53.46667 | -1.81301 | 36431 ft | 434 kts | 279° |
| 2026-04-21 11:50 | 53.47547 | -1.91315 | 36433 ft | 433 kts | 279° |
| 2026-04-21 11:50 | 53.48424 | -2.01323 | 36417 ft | 434 kts | 279° |
| 2026-04-21 11:51 | 53.49292 | -2.11362 | 36402 ft | 434 kts | 279° |
| 2026-04-21 11:51 | 53.50150 | -2.21401 | 36410 ft | 434 kts | 279° |
| 2026-04-21 11:52 | 53.51000 | -2.31379 | 36405 ft | 435 kts | 279° |
| 2026-04-21 11:52 | 53.51847 | -2.41440 | 36409 ft | 435 kts | 279° |
| 2026-04-21 11:53 | 53.52689 | -2.51500 | 36424 ft | 435 kts | 279° |
| 2026-04-21 11:53 | 53.53523 | -2.61573 | 36412 ft | 435 kts | 278° |
| 2026-04-21 11:54 | 53.54330 | -2.71593 | 36413 ft | 436 kts | 278° |
| 2026-04-21 11:54 | 53.55134 | -2.81687 | 36411 ft | 436 kts | 278° |
| 2026-04-21 11:55 | 53.55934 | -2.91791 | 36411 ft | 436 kts | 278° |
| 2026-04-21 11:55 | 53.56736 | -3.01900 | 36413 ft | 436 kts | 278° |
| 2026-04-21 11:56 | 53.57533 | -3.12016 | 36407 ft | 436 kts | 278° |
| 2026-04-21 11:56 | 53.58303 | -3.22061 | 36415 ft | 436 kts | 278° |
| 2026-04-21 11:57 | 53.59069 | -3.32177 | 36421 ft | 436 kts | 278° |
| 2026-04-21 11:57 | 53.59828 | -3.42296 | 36426 ft | 436 kts | 278° |
| 2026-04-21 11:58 | 53.60577 | -3.52419 | 36430 ft | 436 kts | 278° |
| 2026-04-21 11:58 | 53.61323 | -3.62542 | 36433 ft | 436 kts | 279° |
| 2026-04-21 11:59 | 53.62998 | -3.72210 | 36435 ft | 433 kts | 292° |
| 2026-04-21 11:59 | 53.65268 | -3.81620 | 36438 ft | 433 kts | 292° |
| 2026-04-21 12:00 | 53.67517 | -3.91032 | 36445 ft | 433 kts | 292° |
| 2026-04-21 12:00 | 53.69753 | -4.00483 | 36433 ft | 434 kts | 291° |
| 2026-04-21 12:01 | 53.71598 | -4.10111 | 36422 ft | 435 kts | 279° |
| 2026-04-21 12:01 | 53.72098 | -4.20307 | 36418 ft | 436 kts | 274° |
| 2026-04-21 12:02 | 53.72683 | -4.35628 | 36082 ft | 434 kts | 274° |
| 2026-04-21 12:02 | 53.72872 | -4.40707 | 35838 ft | 433 kts | 274° |
| 2026-04-21 12:03 | 53.73057 | -4.45785 | 35592 ft | 432 kts | 274° |
| 2026-04-21 12:03 | 53.73237 | -4.50843 | 35190 ft | 431 kts | 274° |
| 2026-04-21 12:03 | 53.73416 | -4.55923 | 34210 ft | 434 kts | 274° |
| 2026-04-21 12:03 | 53.73589 | -4.60905 | 33409 ft | 428 kts | 274° |
| 2026-04-21 12:04 | 53.73759 | -4.65898 | 32454 ft | 425 kts | 274° |
| 2026-04-21 12:04 | 53.73912 | -4.70862 | 31521 ft | 421 kts | 272° |
| 2026-04-21 12:04 | 53.73627 | -4.75704 | 31191 ft | 411 kts | 263° |
| 2026-04-21 12:04 | 53.73186 | -4.80451 | 30944 ft | 407 kts | 264° |
| 2026-04-21 12:05 | 53.72755 | -4.85162 | 30693 ft | 405 kts | 264° |
| 2026-04-21 12:05 | 53.72325 | -4.89852 | 30434 ft | 403 kts | 264° |
| 2026-04-21 12:05 | 53.71893 | -4.94519 | 29389 ft | 403 kts | 264° |
| 2026-04-21 12:05 | 53.71458 | -4.99139 | 28399 ft | 403 kts | 263° |
| 2026-04-21 12:06 | 53.71012 | -5.03800 | 27426 ft | 403 kts | 263° |
| 2026-04-21 12:06 | 53.70558 | -5.08490 | 26337 ft | 407 kts | 263° |
| 2026-04-21 12:06 | 53.70100 | -5.13222 | 25261 ft | 411 kts | 263° |
| 2026-04-21 12:06 | 53.69637 | -5.18006 | 24214 ft | 415 kts | 263° |
| 2026-04-21 12:07 | 53.69168 | -5.22834 | 23146 ft | 418 kts | 262° |
| 2026-04-21 12:07 | 53.68696 | -5.27649 | 22373 ft | 414 kts | 262° |
| 2026-04-21 12:07 | 53.68223 | -5.32426 | 21592 ft | 411 kts | 262° |
| 2026-04-21 12:07 | 53.67752 | -5.37165 | 20825 ft | 409 kts | 262° |
| 2026-04-21 12:08 | 53.67289 | -5.41821 | 20070 ft | 408 kts | 261° |
| 2026-04-21 12:08 | 53.66820 | -5.46543 | 19335 ft | 409 kts | 261° |
| 2026-04-21 12:08 | 53.66349 | -5.51282 | 18571 ft | 411 kts | 260° |
| 2026-04-21 12:08 | 53.65875 | -5.56035 | 17797 ft | 411 kts | 260° |
| 2026-04-21 12:09 | 53.65401 | -5.60774 | 17079 ft | 410 kts | 259° |
| 2026-04-21 12:09 | 53.64925 | -5.65502 | 16373 ft | 409 kts | 259° |
| 2026-04-21 12:09 | 53.64440 | -5.70259 | 15685 ft | 418 kts | 258° |
| 2026-04-21 12:09 | 53.63948 | -5.75067 | 15231 ft | 411 kts | 258° |
| 2026-04-21 12:10 | 53.63481 | -5.79655 | 15107 ft | 395 kts | 257° |
| 2026-04-21 12:10 | 53.63026 | -5.84120 | 14975 ft | 378 kts | 258° |
| 2026-04-21 12:10 | 53.62593 | -5.88344 | 14678 ft | 356 kts | 257° |
| 2026-04-21 12:10 | 53.62179 | -5.92364 | 14266 ft | 340 kts | 257° |
| 2026-04-21 12:11 | 53.61781 | -5.96206 | 13829 ft | 326 kts | 256° |
| 2026-04-21 12:11 | 53.61395 | -5.99898 | 13366 ft | 315 kts | 256° |
| 2026-04-21 12:11 | 53.61015 | -6.03500 | 12753 ft | 310 kts | 257° |
| 2026-04-21 12:11 | 53.60639 | -6.07043 | 12130 ft | 306 kts | 257° |
| 2026-04-21 12:12 | 53.60265 | -6.10574 | 11447 ft | 306 kts | 257° |
| 2026-04-21 12:12 | 53.59892 | -6.14088 | 11314 ft | 308 kts | 257° |
| 2026-04-21 12:12 | 53.59519 | -6.17594 | 11193 ft | 309 kts | 257° |
| 2026-04-21 12:12 | 53.59141 | -6.21145 | 11059 ft | 308 kts | 257° |
| 2026-04-21 12:13 | 53.58764 | -6.24694 | 10922 ft | 307 kts | 257° |
| 2026-04-21 12:13 | 53.58389 | -6.28209 | 10783 ft | 305 kts | 256° |
| 2026-04-21 12:13 | 53.58009 | -6.31729 | 10658 ft | 307 kts | 256° |
| 2026-04-21 12:13 | 53.57628 | -6.35273 | 10241 ft | 306 kts | 256° |
| 2026-04-21 12:14 | 53.57259 | -6.38730 | 9779 ft | 295 kts | 257° |
| 2026-04-21 12:14 | 53.56904 | -6.42077 | 9281 ft | 287 kts | 256° |
| 2026-04-21 12:14 | 53.56553 | -6.45336 | 8776 ft | 279 kts | 257° |
| 2026-04-21 12:14 | 53.56209 | -6.48470 | 8295 ft | 273 kts | 257° |
| 2026-04-21 12:15 | 53.55865 | -6.51582 | 7791 ft | 269 kts | 257° |
| 2026-04-21 12:15 | 53.55521 | -6.54691 | 7188 ft | 271 kts | 258° |
| 2026-04-21 12:15 | 53.55178 | -6.57821 | 6573 ft | 273 kts | 258° |
| 2026-04-21 12:15 | 53.54799 | -6.60938 | 5979 ft | 270 kts | 250° |
| 2026-04-21 12:16 | 53.53976 | -6.63701 | 5461 ft | 261 kts | 227° |
| 2026-04-21 12:16 | 53.52663 | -6.65652 | 5056 ft | 245 kts | 203° |
| 2026-04-21 12:16 | 53.51108 | -6.66544 | 4818 ft | 230 kts | 180° |
| 2026-04-21 12:16 | 53.49588 | -6.66422 | 4581 ft | 216 kts | 160° |
| 2026-04-21 12:17 | 53.48250 | -6.65452 | 4344 ft | 206 kts | 141° |
| 2026-04-21 12:17 | 53.47225 | -6.63862 | 4137 ft | 197 kts | 123° |
| 2026-04-21 12:17 | 53.46587 | -6.61908 | 3952 ft | 187 kts | 107° |
| 2026-04-21 12:17 | 53.46256 | -6.59821 | 3780 ft | 185 kts | 103° |
| 2026-04-21 12:18 | 53.45937 | -6.57743 | 3597 ft | 183 kts | 103° |
| 2026-04-21 12:18 | 53.45619 | -6.55690 | 3466 ft | 178 kts | 102° |
| 2026-04-21 12:18 | 53.45312 | -6.53709 | 3287 ft | 175 kts | 103° |
| 2026-04-21 12:18 | 53.45065 | -6.51741 | 3107 ft | 175 kts | 98° |
| 2026-04-21 12:19 | 53.44905 | -6.49752 | 2884 ft | 171 kts | 96° |
| 2026-04-21 12:19 | 53.44783 | -6.47781 | 2640 ft | 169 kts | 95° |
| 2026-04-21 12:19 | 53.44673 | -6.45835 | 2422 ft | 168 kts | 94° |
| 2026-04-21 12:19 | 53.44569 | -6.43923 | 2191 ft | 161 kts | 94° |
| 2026-04-21 12:20 | 53.44471 | -6.42095 | 1971 ft | 154 kts | 94° |
| 2026-04-21 12:20 | 53.44377 | -6.40332 | 1757 ft | 149 kts | 95° |
| 2026-04-21 12:20 | 53.44286 | -6.38634 | 1549 ft | 141 kts | 94° |
| 2026-04-21 12:20 | 53.44201 | -6.37068 | 1366 ft | 128 kts | 94° |
| 2026-04-21 12:21 | 53.44123 | -6.35620 | 1202 ft | 124 kts | 94° |
| 2026-04-21 12:21 | 53.44047 | -6.34200 | 1029 ft | 122 kts | 93° |
| 2026-04-21 12:21 | 53.43970 | -6.32782 | 830 ft | 124 kts | 94° |
| 2026-04-21 12:21 | 53.43896 | -6.31367 | 669 ft | 123 kts | 92° |
| 2026-04-21 12:22 | 53.43814 | -6.29937 | 488 ft | 122 kts | 93° |
| 2026-04-21 12:22 | 53.43741 | -6.28544 | 318 ft | 119 kts | 92° |
| 2026-04-21 12:22 | 53.43666 | -6.27180 | 216 ft | 111 kts | 92° |
| 2026-04-21 12:22 | 53.43611 | -6.26140 | 210 ft | 64 kts | 95° |
| 2026-04-21 12:23 | 53.43583 | -6.25670 | 209 ft | 26 kts | 95° |
| 2026-04-21 12:23 | 53.43565 | -6.25406 | 210 ft | 20 kts | 102° |
| 2026-04-21 12:23 | 53.43517 | -6.25199 | 213 ft | 18 kts | 118° |
| 2026-04-21 12:23 | 53.43458 | -6.25025 | 211 ft | 17 kts | 120° |
| 2026-04-21 12:24 | 53.43381 | -6.25061 | 213 ft | 16 kts | 263° |
| 2026-04-21 12:24 | 53.43389 | -6.25236 | 213 ft | 14 kts | 274° |
| 2026-04-21 12:24 | 53.43398 | -6.25396 | 211 ft | 13 kts | 275° |
| 2026-04-21 12:24 | 53.43407 | -6.25542 | 211 ft | 12 kts | 275° |
| 2026-04-21 12:25 | 53.43376 | -6.25650 | 211 ft | 11 kts | 191° |
| 2026-04-21 12:25 | 53.43306 | -6.25615 | 211 ft | 12 kts | 155° |
| 2026-04-21 12:25 | 53.43189 | -6.25527 | 212 ft | 22 kts | 156° |
| 2026-04-21 12:25 | 53.43041 | -6.25421 | 216 ft | 24 kts | 156° |
| 2026-04-21 12:26 | 53.42886 | -6.25306 | 219 ft | 25 kts | 157° |
| 2026-04-21 12:26 | 53.42796 | -6.25195 | 211 ft | 15 kts | 101° |
| 2026-04-21 12:26 | 53.42768 | -6.25036 | 215 ft | 15 kts | 140° |
| 2026-04-21 12:26 | 53.42673 | -6.24934 | 211 ft | 17 kts | 147° |
| 2026-04-21 12:27 | 53.42561 | -6.24840 | 214 ft | 19 kts | 156° |
| 2026-04-21 12:27 | 53.42448 | -6.24759 | 216 ft | 15 kts | 154° |
| 2026-04-21 12:27 | 53.42427 | -6.24614 | 218 ft | 15 kts | 63° |
| 2026-04-21 12:27 | 53.42472 | -6.24481 | 211 ft | 10 kts | 51° |
| 2026-04-21 12:28 | 53.42498 | -6.24394 | 211 ft | 9 kts | 120° |
| 2026-04-21 12:28 | 53.42469 | -6.24349 | 211 ft | 3 kts | 136° |
| 2026-04-21 12:28 | 53.42466 | -6.24343 | 215 ft | 0 kts | 135° |
| 2026-04-21 12:32 | 53.42465 | -6.24343 | 215 ft | 0 kts | 135° |